Time;durP1;ratioP1;P1;durP2;ratioP2;P2;SDS_P1;SDS_P2;PMS_P1;PMS_P2;Temp;Humidity;BMP_temperature;BMP_pressure;BME280_temperature;BME280_humidity;BME280_pressure;Samples;Min_cycle;Max_cycle;Signal;HPM_P1;HPM_P2
2021/07/31 00:02:23;;;;;;;1.85;1.20;;;20.20;67.30;;;;;;4988260;28;20077;-76
2021/07/31 00:04:50;;;;;;;2.20;1.25;;;20.10;67.60;;;;;;4981430;28;20068;-77
2021/07/31 00:07:16;;;;;;;2.53;1.25;;;20.10;67.50;;;;;;4982388;28;20041;-76
2021/07/31 00:09:42;;;;;;;6.22;1.73;;;20.10;67.60;;;;;;4991559;28;20058;-77
2021/07/31 00:12:08;;;;;;;2.55;0.93;;;20.20;67.50;;;;;;4983806;28;20053;-77
2021/07/31 00:14:33;;;;;;;1.73;1.23;;;20.20;67.40;;;;;;4993387;28;20027;-77
2021/07/31 00:16:59;;;;;;;2.03;1.00;;;20.10;67.70;;;;;;4993767;28;20018;-77
2021/07/31 00:19:24;;;;;;;4.35;1.80;;;20.10;67.80;;;;;;4988974;28;20038;-77
2021/07/31 00:21:50;;;;;;;3.95;1.30;;;20.10;67.40;;;;;;4983069;28;20030;-77
2021/07/31 00:24:16;;;;;;;2.80;1.60;;;20.20;67.10;;;;;;4994048;28;20027;-77
2021/07/31 00:26:41;;;;;;;1.60;1.10;;;20.20;67.00;;;;;;4982185;28;20063;-77
2021/07/31 00:29:07;;;;;;;2.72;1.33;;;20.20;67.10;;;;;;4992040;28;20393;-77
2021/07/31 00:31:33;;;;;;;1.52;1.15;;;20.20;67.10;;;;;;4993885;28;20030;-77
2021/07/31 00:33:58;;;;;;;3.15;1.17;;;20.20;66.90;;;;;;4993912;28;20027;-78
2021/07/31 00:36:24;;;;;;;2.78;0.93;;;20.20;67.00;;;;;;4982276;28;20031;-77
2021/07/31 00:38:50;;;;;;;2.83;1.10;;;20.30;66.80;;;;;;4992310;28;20022;-77
2021/07/31 00:41:15;;;;;;;7.90;1.65;;;20.30;66.90;;;;;;4993737;28;20034;-77
2021/07/31 00:43:41;;;;;;;3.58;1.73;;;20.30;66.70;;;;;;4993557;28;20031;-77
2021/07/31 00:46:07;;;;;;;3.72;1.40;;;20.40;67.00;;;;;;4984639;28;20041;-77
2021/07/31 00:48:33;;;;;;;1.75;1.42;;;20.30;67.00;;;;;;4991396;28;20497;-77
2021/07/31 00:50:59;;;;;;;1.42;1.10;;;20.30;67.30;;;;;;4993511;28;20121;-76
2021/07/31 00:53:25;;;;;;;5.78;1.55;;;20.20;67.20;;;;;;4988316;28;20113;-77
2021/07/31 00:55:52;;;;;;;2.42;0.82;;;20.20;67.30;;;;;;4992696;28;20054;-77
2021/07/31 00:58:17;;;;;;;1.90;1.10;;;20.10;67.30;;;;;;5006791;28;20404;-77
2021/07/31 01:00:43;;;;;;;2.13;0.70;;;20.10;67.40;;;;;;4992180;28;20026;-77
2021/07/31 01:03:08;;;;;;;1.75;1.02;;;20.10;67.40;;;;;;4992768;28;20434;-76
2021/07/31 01:05:35;;;;;;;3.85;1.30;;;20.20;67.70;;;;;;4992678;28;20034;-78
2021/07/31 01:08:01;;;;;;;3.08;1.00;;;20.20;67.30;;;;;;4979630;28;20030;-77
2021/07/31 01:10:27;;;;;;;2.85;1.50;;;20.20;67.40;;;;;;4991025;28;20088;-77
2021/07/31 01:12:54;;;;;;;2.55;1.45;;;20.20;67.40;;;;;;4992714;28;20018;-77
2021/07/31 01:15:20;;;;;;;4.00;1.30;;;20.20;67.50;;;;;;4992994;28;20034;-78
2021/07/31 01:17:45;;;;;;;3.65;1.27;;;20.10;67.50;;;;;;4982620;28;20109;-77
2021/07/31 01:20:12;;;;;;;2.03;1.20;;;20.10;67.50;;;;;;4970688;28;20054;-78
2021/07/31 01:22:38;;;;;;;2.33;1.30;;;20.00;67.40;;;;;;4992730;28;20045;-77
2021/07/31 01:25:04;;;;;;;2.33;1.00;;;20.00;67.20;;;;;;4983729;28;20030;-77
2021/07/31 01:27:29;;;;;;;3.90;1.13;;;20.00;67.50;;;;;;4994355;28;20091;-77
2021/07/31 01:29:55;;;;;;;2.72;1.63;;;19.90;67.60;;;;;;4993655;28;20501;-77
2021/07/31 01:32:20;;;;;;;3.95;1.75;;;19.80;68.00;;;;;;4994950;28;20029;-77
2021/07/31 01:34:46;;;;;;;2.65;1.60;;;19.70;68.10;;;;;;4985588;28;20031;-77
2021/07/31 01:37:11;;;;;;;0.98;0.73;;;19.70;68.40;;;;;;4996181;28;20022;-77
2021/07/31 01:39:37;;;;;;;2.03;1.00;;;19.70;68.00;;;;;;4984869;28;20141;-77
2021/07/31 01:42:05;;;;;;;1.83;0.88;;;19.70;68.30;;;;;;4993299;28;20481;-77
2021/07/31 01:44:31;;;;;;;2.67;0.90;;;19.70;68.60;;;;;;4983938;28;20478;-77
2021/07/31 01:46:56;;;;;;;1.60;1.30;;;19.70;68.60;;;;;;4982627;28;20076;-77
2021/07/31 01:49:22;;;;;;;2.17;1.20;;;19.80;68.90;;;;;;4990890;28;20042;-77
2021/07/31 01:51:47;;;;;;;2.35;0.88;;;19.70;68.80;;;;;;4992038;28;20109;-77
2021/07/31 01:54:13;;;;;;;2.83;1.13;;;19.70;68.60;;;;;;4991062;28;20149;-77
2021/07/31 01:56:38;;;;;;;1.33;0.93;;;19.80;68.80;;;;;;4991875;28;20481;-77
2021/07/31 01:59:03;;;;;;;2.65;1.00;;;19.80;68.80;;;;;;4980568;28;20029;-77
2021/07/31 02:01:29;;;;;;;1.35;0.75;;;19.80;68.60;;;;;;4982148;28;20476;-77
2021/07/31 02:03:55;;;;;;;1.42;1.33;;;19.80;69.00;;;;;;4981931;28;20033;-78
2021/07/31 02:06:20;;;;;;;2.70;0.75;;;19.70;68.90;;;;;;4982413;28;20034;-77
2021/07/31 02:08:46;;;;;;;3.97;1.23;;;19.70;68.80;;;;;;4989262;28;20035;-77
2021/07/31 02:11:12;;;;;;;2.03;0.90;;;19.70;68.90;;;;;;4982278;28;20022;-78
2021/07/31 02:13:37;;;;;;;3.50;0.90;;;19.70;68.70;;;;;;4991153;28;20473;-77
2021/07/31 02:16:03;;;;;;;1.08;0.85;;;19.70;68.60;;;;;;4989788;28;20038;-77
2021/07/31 02:18:29;;;;;;;3.63;0.85;;;19.70;68.70;;;;;;4988379;28;20045;-77
2021/07/31 02:20:54;;;;;;;6.72;1.02;;;19.60;68.60;;;;;;4991613;28;20035;-77
2021/07/31 02:23:20;;;;;;;4.60;1.08;;;19.50;68.50;;;;;;4991228;28;20113;-77
2021/07/31 02:25:45;;;;;;;1.52;0.70;;;19.50;68.20;;;;;;4982151;28;20114;-77
2021/07/31 02:28:12;;;;;;;4.35;0.90;;;19.40;68.10;;;;;;4989188;28;20696;-78
2021/07/31 02:30:37;;;;;;;1.42;0.90;;;19.40;67.90;;;;;;4989292;28;20122;-78
2021/07/31 02:33:03;;;;;;;1.20;1.10;;;19.40;67.60;;;;;;4980223;28;20070;-78
2021/07/31 02:35:33;;;;;;;2.13;1.02;;;19.40;67.70;;;;;;4991026;28;20098;-78
2021/07/31 02:37:59;;;;;;;3.00;0.95;;;19.40;67.60;;;;;;4990141;28;20037;-78
2021/07/31 02:40:25;;;;;;;2.30;0.80;;;19.40;67.50;;;;;;5005438;28;20030;-78
2021/07/31 02:42:50;;;;;;;1.85;1.00;;;19.40;67.30;;;;;;4980894;28;20057;-78
2021/07/31 02:45:16;;;;;;;3.15;0.88;;;19.40;67.20;;;;;;4990626;28;20499;-78
2021/07/31 02:47:41;;;;;;;1.80;0.68;;;19.40;67.20;;;;;;4978025;28;20058;-78
2021/07/31 02:50:07;;;;;;;2.50;0.88;;;19.50;67.10;;;;;;4996294;28;20082;-76
2021/07/31 02:52:33;;;;;;;2.38;1.20;;;19.50;67.00;;;;;;4990899;28;20477;-78
2021/07/31 02:54:58;;;;;;;2.75;0.90;;;19.50;67.10;;;;;;4991069;28;20041;-78
2021/07/31 02:57:24;;;;;;;1.50;0.98;;;19.50;67.10;;;;;;4990000;28;20058;-78
2021/07/31 02:59:49;;;;;;;4.45;0.90;;;19.50;67.10;;;;;;4979452;28;20092;-78
2021/07/31 03:02:15;;;;;;;2.95;1.48;;;19.50;67.10;;;;;;4990727;28;20045;-78
2021/07/31 03:04:40;;;;;;;3.25;1.17;;;19.40;67.00;;;;;;4988568;28;20030;-78
2021/07/31 03:07:06;;;;;;;3.72;1.08;;;19.40;67.30;;;;;;4990462;28;20034;-78
2021/07/31 03:09:31;;;;;;;1.35;0.75;;;19.30;67.30;;;;;;4995826;28;20033;-76
2021/07/31 03:11:57;;;;;;;3.58;0.93;;;19.30;67.10;;;;;;4990470;28;20026;-77
2021/07/31 03:14:22;;;;;;;1.42;1.05;;;19.30;67.10;;;;;;4980552;28;20480;-76
2021/07/31 03:16:48;;;;;;;2.20;0.82;;;19.30;67.00;;;;;;4982203;28;20022;-77
2021/07/31 03:19:13;;;;;;;2.58;0.75;;;19.30;66.80;;;;;;4977104;28;20043;-78
2021/07/31 03:21:40;;;;;;;3.45;1.10;;;19.30;67.10;;;;;;4988784;28;20473;-76
2021/07/31 03:24:06;;;;;;;1.92;0.80;;;19.30;67.50;;;;;;4989348;28;20030;-78
2021/07/31 03:26:31;;;;;;;2.53;0.80;;;19.20;67.80;;;;;;4981621;28;20044;-78
2021/07/31 03:28:57;;;;;;;1.27;0.90;;;19.10;67.00;;;;;;4980449;28;20034;-78
2021/07/31 03:31:23;;;;;;;5.15;0.75;;;19.00;67.20;;;;;;4989640;28;20485;-78
2021/07/31 03:33:49;;;;;;;4.15;0.80;;;18.90;67.20;;;;;;4980697;28;20023;-78
2021/07/31 03:36:15;;;;;;;3.72;0.93;;;19.00;67.30;;;;;;4979128;28;20025;-78
2021/07/31 03:38:41;;;;;;;3.65;0.95;;;19.00;67.00;;;;;;4980069;28;20473;-78
2021/07/31 03:41:06;;;;;;;4.55;1.48;;;18.90;67.20;;;;;;4979918;28;20453;-78
2021/07/31 03:43:32;;;;;;;2.65;0.77;;;18.90;67.00;;;;;;4980337;28;20545;-78
2021/07/31 03:45:57;;;;;;;2.95;1.40;;;18.90;67.00;;;;;;4990193;28;20034;-78
2021/07/31 03:48:23;;;;;;;3.80;0.80;;;19.00;66.90;;;;;;4978870;28;20073;-78
2021/07/31 03:50:49;;;;;;;2.00;0.95;;;18.90;66.70;;;;;;4979957;28;20050;-77
2021/07/31 03:53:14;;;;;;;2.60;0.75;;;18.90;67.00;;;;;;4988213;28;20113;-77
2021/07/31 03:55:44;;;;;;;4.72;1.00;;;18.90;67.00;;;;;;4988603;28;20026;-75
2021/07/31 03:58:09;;;;;;;5.68;1.00;;;18.80;67.10;;;;;;4978252;28;20034;-77
2021/07/31 04:00:35;;;;;;;4.43;1.05;;;18.90;67.10;;;;;;4989452;28;20105;-77
2021/07/31 04:03:00;;;;;;;1.65;1.27;;;18.90;66.70;;;;;;4979818;28;20081;-77
2021/07/31 04:05:26;;;;;;;2.17;0.50;;;19.00;66.50;;;;;;4989336;28;20026;-77
2021/07/31 04:07:51;;;;;;;4.45;0.98;;;19.00;66.70;;;;;;4979862;28;20041;-75
2021/07/31 04:10:17;;;;;;;3.00;1.08;;;18.90;66.80;;;;;;4986404;28;20042;-75
2021/07/31 04:12:42;;;;;;;2.08;1.02;;;18.90;66.50;;;;;;4980765;28;20026;-76
2021/07/31 04:15:09;;;;;;;3.15;0.65;;;19.10;66.50;;;;;;4980158;28;20073;-76
2021/07/31 04:17:35;;;;;;;2.00;0.80;;;19.20;66.10;;;;;;4979198;28;20030;-76
2021/07/31 04:20:00;;;;;;;2.92;0.70;;;19.30;65.80;;;;;;4978665;28;20041;-76
2021/07/31 04:22:26;;;;;;;1.55;0.63;;;19.60;65.50;;;;;;4989539;28;20080;-76
2021/07/31 04:24:52;;;;;;;4.60;0.80;;;19.70;65.60;;;;;;4988335;28;20034;-75
2021/07/31 04:27:18;;;;;;;2.92;1.20;;;19.90;64.80;;;;;;4987151;28;20027;-76
2021/07/31 04:29:44;;;;;;;1.20;0.77;;;20.10;64.40;;;;;;4988843;28;20041;-75
2021/07/31 04:32:09;;;;;;;3.00;1.05;;;20.30;64.30;;;;;;4988416;28;20022;-76
2021/07/31 04:34:35;;;;;;;3.10;1.05;;;20.30;63.80;;;;;;4980710;28;20022;-76
2021/07/31 04:37:00;;;;;;;3.92;0.90;;;20.20;63.50;;;;;;4979622;28;20473;-76
2021/07/31 04:39:26;;;;;;;4.50;1.50;;;20.30;63.60;;;;;;4977824;28;20041;-76
2021/07/31 04:41:51;;;;;;;2.65;1.10;;;20.50;63.70;;;;;;4986141;28;20034;-76
2021/07/31 04:44:17;;;;;;;3.22;1.15;;;20.60;63.70;;;;;;4979958;28;20030;-78
2021/07/31 04:46:42;;;;;;;4.82;1.30;;;20.90;62.80;;;;;;4988418;28;20042;-76
2021/07/31 04:49:08;;;;;;;5.53;1.50;;;21.10;62.10;;;;;;4988581;28;20030;-76
2021/07/31 04:51:33;;;;;;;4.15;1.02;;;21.20;61.30;;;;;;4989038;28;20024;-76
2021/07/31 04:53:59;;;;;;;7.50;1.15;;;21.20;61.10;;;;;;4991100;28;20113;-76
2021/07/31 04:56:24;;;;;;;2.80;0.90;;;21.10;61.00;;;;;;4982444;28;20026;-76
2021/07/31 04:58:50;;;;;;;2.95;1.00;;;21.30;60.70;;;;;;4989824;28;20061;-76
2021/07/31 05:01:15;;;;;;;2.22;0.80;;;21.50;60.50;;;;;;4992351;28;20536;-76
2021/07/31 05:03:40;;;;;;;2.25;0.80;;;21.70;59.60;;;;;;4992706;28;20065;-76
2021/07/31 05:06:06;;;;;;;2.88;0.70;;;21.90;59.10;;;;;;4983260;28;20026;-76
2021/07/31 05:08:32;;;;;;;1.98;0.70;;;22.00;59.40;;;;;;4981977;28;20042;-76
2021/07/31 05:10:58;;;;;;;4.95;0.47;;;22.20;58.60;;;;;;4992382;28;20481;-76
2021/07/31 05:13:23;;;;;;;2.00;0.50;;;22.40;57.80;;;;;;4983115;28;20125;-76
2021/07/31 05:15:49;;;;;;;2.92;0.60;;;22.50;57.60;;;;;;4990699;28;20030;-76
2021/07/31 05:18:15;;;;;;;1.27;0.50;;;22.30;57.30;;;;;;4990976;28;20089;-76
2021/07/31 05:20:45;;;;;;;4.55;1.02;;;22.10;57.50;;;;;;4990713;28;20038;-76
2021/07/31 05:23:12;;;;;;;2.85;0.57;;;21.80;57.90;;;;;;4990006;28;20058;-76
2021/07/31 05:25:37;;;;;;;2.78;0.70;;;21.60;58.60;;;;;;4982683;28;20042;-76
2021/07/31 05:28:03;;;;;;;5.15;0.82;;;21.30;58.80;;;;;;4981308;28;20023;-76
2021/07/31 05:30:28;;;;;;;3.95;0.85;;;21.20;59.10;;;;;;4981321;28;20117;-76
2021/07/31 05:32:54;;;;;;;4.13;0.80;;;21.20;59.30;;;;;;4991872;28;20030;-76
2021/07/31 05:35:20;;;;;;;1.65;0.50;;;21.50;59.30;;;;;;4991660;28;20049;-76
2021/07/31 05:37:45;;;;;;;3.53;0.60;;;22.00;58.20;;;;;;4990551;28;20047;-76
2021/07/31 05:40:12;;;;;;;3.85;0.52;;;22.60;57.40;;;;;;4991330;28;20046;-76
2021/07/31 05:42:39;;;;;;;2.67;0.52;;;22.90;56.50;;;;;;4982803;28;20057;-76
2021/07/31 05:45:06;;;;;;;6.85;0.47;;;23.20;55.90;;;;;;4991459;28;20088;-76
2021/07/31 05:47:34;;;;;;;3.88;0.50;;;23.00;56.00;;;;;;4987555;28;20035;-76
2021/07/31 05:50:02;;;;;;;4.90;0.60;;;22.80;56.30;;;;;;4989860;28;20019;-76
2021/07/31 05:52:28;;;;;;;2.35;0.60;;;22.60;57.00;;;;;;4991062;28;20022;-76
2021/07/31 05:54:55;;;;;;;2.20;0.60;;;22.60;56.90;;;;;;4991873;28;20030;-76
2021/07/31 05:57:21;;;;;;;4.28;1.15;;;22.70;56.80;;;;;;4990562;28;20037;-76
2021/07/31 05:59:47;;;;;;;4.55;0.50;;;22.80;57.00;;;;;;4980793;28;20093;-76
2021/07/31 06:02:13;;;;;;;3.47;0.57;;;22.80;56.90;;;;;;4991362;28;20034;-76
2021/07/31 06:04:38;;;;;;;3.28;1.38;;;22.80;56.60;;;;;;4978945;28;20038;-76
2021/07/31 06:07:06;;;;;;;4.03;0.45;;;22.70;56.50;;;;;;4990998;28;20072;-76
2021/07/31 06:09:37;;;;;;;4.00;0.50;;;22.60;56.80;;;;;;4989304;28;20109;-76
2021/07/31 06:12:04;;;;;;;3.88;1.05;;;22.50;57.00;;;;;;4990128;28;20037;-76
2021/07/31 06:14:32;;;;;;;4.00;0.45;;;22.70;56.80;;;;;;4982016;28;20072;-76
2021/07/31 06:16:58;;;;;;;1.45;0.45;;;22.70;56.40;;;;;;4989217;28;20061;-76
2021/07/31 06:19:23;;;;;;;3.25;0.77;;;22.60;56.50;;;;;;4987010;28;20437;-76
2021/07/31 06:21:49;;;;;;;1.20;0.43;;;22.50;56.70;;;;;;4989611;28;20085;-76
2021/07/31 06:24:14;;;;;;;3.45;0.65;;;22.40;56.70;;;;;;4991051;28;20065;-76
2021/07/31 06:26:40;;;;;;;1.98;0.73;;;22.40;57.10;;;;;;4990240;28;20076;-76
2021/07/31 06:29:05;;;;;;;5.90;0.75;;;22.30;57.20;;;;;;4989751;28;20034;-77
2021/07/31 06:31:31;;;;;;;0.82;0.32;;;22.20;57.00;;;;;;4980838;28;20105;-76
2021/07/31 06:33:57;;;;;;;1.52;0.50;;;22.10;57.50;;;;;;4978774;28;20045;-77
2021/07/31 06:36:23;;;;;;;1.02;0.50;;;22.00;57.10;;;;;;4980936;28;20039;-70
2021/07/31 06:38:49;;;;;;;3.03;0.60;;;21.70;57.10;;;;;;4997004;28;20451;-70
2021/07/31 06:41:15;;;;;;;2.38;0.50;;;21.40;57.70;;;;;;4990926;28;20034;-70
2021/07/31 06:43:40;;;;;;;5.43;1.08;;;21.20;58.10;;;;;;4989269;28;20518;-70
2021/07/31 06:46:13;;;;;;;2.95;0.60;;;21.10;58.60;;;;;;4980721;28;20034;-70
2021/07/31 06:48:38;;;;;;;1.80;0.70;;;20.90;58.90;;;;;;4988424;28;20026;-70
2021/07/31 06:51:04;;;;;;;2.42;0.63;;;20.80;59.50;;;;;;4985344;28;20030;-69
2021/07/31 06:53:30;;;;;;;4.18;0.90;;;20.80;60.00;;;;;;4979154;28;20023;-70
2021/07/31 06:56:00;;;;;;;3.17;0.90;;;20.80;59.50;;;;;;4979691;28;20527;-69
2021/07/31 06:58:25;;;;;;;5.30;2.90;;;20.80;59.60;;;;;;4976809;28;20026;-70
2021/07/31 07:00:51;;;;;;;6.35;3.33;;;20.80;59.70;;;;;;4981695;28;20401;-70
2021/07/31 07:03:17;;;;;;;3.05;1.40;;;20.90;60.30;;;;;;4988150;28;20053;-70
2021/07/31 07:05:42;;;;;;;5.50;1.58;;;21.00;59.30;;;;;;4988368;28;20549;-69
2021/07/31 07:08:08;;;;;;;2.78;1.08;;;21.00;59.10;;;;;;4986501;28;20049;-70
2021/07/31 07:10:33;;;;;;;2.67;0.85;;;21.10;59.00;;;;;;4989341;28;20030;-70
2021/07/31 07:12:59;;;;;;;1.80;0.55;;;21.20;58.50;;;;;;4987137;28;20027;-70
2021/07/31 07:15:27;;;;;;;2.25;0.45;;;21.30;58.40;;;;;;4989740;28;20026;-70
2021/07/31 07:17:54;;;;;;;1.98;0.47;;;21.40;58.30;;;;;;5034084;23;20025;-67
2021/07/31 07:20:20;;;;;;;4.60;1.02;;;21.50;57.90;;;;;;5008634;28;20046;-67
2021/07/31 07:22:45;;;;;;;5.07;0.55;;;21.50;57.50;;;;;;5009230;28;20371;-67
2021/07/31 07:25:11;;;;;;;1.08;0.43;;;21.50;57.30;;;;;;5007170;28;20247;-67
2021/07/31 07:27:37;;;;;;;3.47;0.50;;;21.50;57.80;;;;;;5008700;28;20025;-67
2021/07/31 07:30:03;;;;;;;2.65;0.70;;;21.40;57.60;;;;;;5006872;28;20036;-67
2021/07/31 07:32:29;;;;;;;6.50;4.80;;;21.40;57.80;;;;;;5006796;28;20081;-67
2021/07/31 07:34:54;;;;;;;5.30;3.22;;;21.30;57.90;;;;;;5009572;28;20054;-67
2021/07/31 07:37:19;;;;;;;3.08;0.93;;;21.30;58.30;;;;;;5008306;28;20029;-67
2021/07/31 07:39:45;;;;;;;3.72;0.73;;;21.20;58.50;;;;;;5009263;28;20061;-67
2021/07/31 07:42:10;;;;;;;4.03;0.80;;;21.20;57.50;;;;;;5004530;28;20033;-67
2021/07/31 07:44:36;;;;;;;3.92;0.88;;;21.20;57.50;;;;;;5007125;28;20528;-67
2021/07/31 07:47:02;;;;;;;2.35;0.40;;;21.10;57.20;;;;;;5005971;28;20022;-67
2021/07/31 07:49:27;;;;;;;1.15;0.60;;;21.00;57.20;;;;;;5008341;28;20042;-67
2021/07/31 07:51:53;;;;;;;3.55;0.77;;;20.80;57.70;;;;;;5009326;28;20018;-66
2021/07/31 07:54:18;;;;;;;8.10;0.80;;;20.80;57.80;;;;;;5007690;28;20097;-67
2021/07/31 07:56:44;;;;;;;3.38;0.82;;;20.80;57.80;;;;;;5007355;28;20332;-69
2021/07/31 07:59:09;;;;;;;2.47;0.68;;;20.80;58.10;;;;;;5005387;28;20030;-67
2021/07/31 08:01:35;;;;;;;12.93;1.85;;;20.90;58.30;;;;;;5007185;28;20038;-78
2021/07/31 08:04:01;;;;;;;15.98;2.10;;;21.00;58.80;;;;;;5009157;28;20029;-76
2021/07/31 08:06:27;;;;;;;6.20;0.68;;;21.20;59.20;;;;;;5006706;28;20096;-76
2021/07/31 08:08:53;;;;;;;2.85;0.73;;;21.50;58.30;;;;;;5008191;28;20473;-79
2021/07/31 08:11:18;;;;;;;10.25;1.10;;;21.60;57.90;;;;;;5009337;28;20563;-75
2021/07/31 08:13:44;;;;;;;1.98;0.50;;;21.70;57.80;;;;;;5005240;28;20141;-66
2021/07/31 08:16:10;;;;;;;3.75;0.55;;;21.80;56.30;;;;;;5007771;28;20076;-67
2021/07/31 08:18:35;;;;;;;5.53;0.70;;;21.80;56.10;;;;;;5005944;28;20034;-66
2021/07/31 08:21:01;;;;;;;3.08;0.73;;;21.60;55.70;;;;;;5008812;28;20218;-66
2021/07/31 08:23:27;;;;;;;1.23;0.60;;;21.40;56.30;;;;;;5008126;28;20109;-67
2021/07/31 08:25:52;;;;;;;2.25;0.60;;;21.30;56.30;;;;;;5009175;28;20029;-67
2021/07/31 08:28:18;;;;;;;2.15;0.47;;;21.20;56.90;;;;;;5008322;28;20492;-67
2021/07/31 08:30:43;;;;;;;2.17;0.50;;;21.10;57.00;;;;;;5008190;28;20476;-66
2021/07/31 08:33:09;;;;;;;1.63;0.40;;;21.00;57.20;;;;;;5009160;28;20064;-69
2021/07/31 08:35:34;;;;;;;1.48;0.63;;;21.00;57.30;;;;;;5012112;28;20030;-69
2021/07/31 08:38:00;;;;;;;1.88;0.40;;;20.90;57.60;;;;;;5012115;28;20033;-71
2021/07/31 08:40:26;;;;;;;1.85;0.47;;;20.90;57.60;;;;;;5010884;28;20030;-70
2021/07/31 08:42:52;;;;;;;1.40;0.38;;;20.80;57.70;;;;;;5012334;28;20492;-69
2021/07/31 08:45:17;;;;;;;6.78;0.82;;;20.90;58.00;;;;;;5011940;28;20065;-69
2021/07/31 08:47:45;;;;;;;2.25;0.70;;;21.00;58.20;;;;;;5010408;28;20049;-69
2021/07/31 08:50:12;;;;;;;4.45;0.70;;;21.00;57.70;;;;;;5011573;28;20037;-70
2021/07/31 08:52:41;;;;;;;3.25;0.50;;;21.20;57.30;;;;;;5012052;28;20030;-70
2021/07/31 08:55:07;;;;;;;1.08;0.40;;;21.20;57.30;;;;;;5011771;28;20401;-69
2021/07/31 08:57:33;;;;;;;2.50;0.93;;;21.20;57.10;;;;;;5011747;28;20504;-70
2021/07/31 08:59:58;;;;;;;1.08;0.40;;;21.20;57.40;;;;;;5011900;28;20041;-72
2021/07/31 09:02:24;;;;;;;1.95;0.80;;;21.20;57.60;;;;;;5009821;28;20033;-72
2021/07/31 09:04:53;;;;;;;0.60;0.40;;;21.10;57.50;;;;;;5012061;28;20488;-72
2021/07/31 09:07:19;;;;;;;6.55;0.85;;;21.10;57.70;;;;;;5011747;28;20029;-70
2021/07/31 09:09:46;;;;;;;2.45;0.40;;;21.10;57.50;;;;;;5011486;28;20444;-70
2021/07/31 09:12:11;;;;;;;1.92;0.57;;;21.10;57.50;;;;;;5011935;28;20022;-69
2021/07/31 09:14:45;;;;;;;4.07;0.50;;;21.10;57.60;;;;;;5011793;28;20033;-68
2021/07/31 09:17:33;;;;;;;4.43;0.95;;;21.10;57.90;;;;;;5010981;28;20060;-70
2021/07/31 09:19:58;;;;;;;1.13;0.50;;;21.20;58.00;;;;;;5010222;28;20033;-69
2021/07/31 09:22:24;;;;;;;1.00;0.40;;;21.20;57.90;;;;;;5011333;28;20109;-69
2021/07/31 09:25:09;;;;;;;2.88;0.60;;;21.20;57.60;;;;;;5011872;28;20033;-69
2021/07/31 09:27:35;;;;;;;2.25;1.05;;;21.20;57.70;;;;;;5002216;28;20030;-69
2021/07/31 09:30:05;;;;;;;1.00;0.40;;;21.20;57.60;;;;;;5011233;28;20025;-71
2021/07/31 09:32:39;;;;;;;2.15;0.70;;;21.20;57.90;;;;;;5011131;28;20026;-72
2021/07/31 09:35:21;;;;;;;0.68;0.38;;;21.10;57.80;;;;;;5011468;28;20025;-70
2021/07/31 09:37:49;;;;;;;2.05;0.80;;;21.10;58.00;;;;;;5010876;28;20040;-70
2021/07/31 09:40:25;;;;;;;1.02;0.40;;;21.20;58.00;;;;;;5008846;28;20022;-70
2021/07/31 09:42:51;;;;;;;2.75;0.60;;;21.10;58.20;;;;;;5009475;28;20149;-70
2021/07/31 09:45:18;;;;;;;3.13;0.95;;;21.10;58.30;;;;;;5010084;28;20461;-70
2021/07/31 09:48:04;;;;;;;1.02;0.50;;;21.10;58.40;;;;;;5006519;28;20065;-70
2021/07/31 09:50:46;;;;;;;1.30;0.50;;;21.10;58.40;;;;;;5009173;28;20041;-70
2021/07/31 09:53:13;;;;;;;1.45;0.50;;;21.30;58.90;;;;;;5023949;28;20041;-70
2021/07/31 09:55:50;;;;;;;0.93;0.60;;;21.60;58.30;;;;;;5010182;28;20091;-70
2021/07/31 09:58:17;;;;;;;1.13;0.50;;;21.70;57.80;;;;;;5010713;28;20034;-70
2021/07/31 10:00:44;;;;;;;3.10;0.70;;;21.80;58.00;;;;;;5005731;28;20052;-70
2021/07/31 10:03:11;;;;;;;1.05;0.68;;;21.80;57.50;;;;;;5011698;28;20505;-77
2021/07/31 10:05:41;;;;;;;1.10;0.63;;;21.80;57.10;;;;;;5012666;28;20061;-71
2021/07/31 10:08:07;;;;;;;1.27;0.43;;;22.00;57.30;;;;;;5009383;28;20061;-70
2021/07/31 10:10:34;;;;;;;1.58;0.57;;;22.00;57.10;;;;;;5009134;28;20037;-71
2021/07/31 10:13:00;;;;;;;3.63;0.95;;;21.80;57.10;;;;;;5009119;28;20075;-70
2021/07/31 10:15:25;;;;;;;1.42;0.55;;;21.70;57.60;;;;;;5010020;28;20109;-70
2021/07/31 10:17:51;;;;;;;1.00;0.57;;;21.70;57.60;;;;;;5010499;28;20484;-70
2021/07/31 10:20:28;;;;;;;0.77;0.57;;;21.70;57.30;;;;;;5009070;28;20038;-70
2021/07/31 10:22:54;;;;;;;0.70;0.60;;;21.70;57.70;;;;;;5006163;28;20485;-69
2021/07/31 10:25:21;;;;;;;4.78;1.08;;;21.60;57.80;;;;;;5008168;28;20112;-70
2021/07/31 10:27:47;;;;;;;2.35;1.00;;;21.60;58.00;;;;;;5006412;28;20026;-71
2021/07/31 10:30:31;;;;;;;2.03;0.93;;;21.70;58.30;;;;;;5007498;28;20398;-71
2021/07/31 10:32:57;;;;;;;2.95;0.88;;;21.80;57.90;;;;;;5012825;28;20022;-73
2021/07/31 10:35:34;;;;;;;2.15;0.80;;;22.00;58.00;;;;;;5025853;28;20029;-71
2021/07/31 10:38:02;;;;;;;1.20;0.60;;;22.10;58.40;;;;;;5010316;28;20021;-70
2021/07/31 10:40:36;;;;;;;4.28;0.57;;;22.30;57.50;;;;;;5010012;28;20492;-70
2021/07/31 10:43:02;;;;;;;3.95;0.63;;;22.50;57.30;;;;;;5000088;28;20026;-72
2021/07/31 10:45:30;;;;;;;4.15;0.60;;;22.60;57.00;;;;;;5008095;28;20401;-72
2021/07/31 10:48:02;;;;;;;3.92;0.60;;;22.80;56.60;;;;;;5008778;28;20061;-71
2021/07/31 10:50:28;;;;;;;2.10;0.50;;;22.90;56.10;;;;;;5007465;28;20036;-71
2021/07/31 10:53:06;;;;;;;1.48;0.75;;;22.80;56.20;;;;;;5007727;28;20018;-71
2021/07/31 10:55:38;;;;;;;3.47;0.93;;;22.80;55.90;;;;;;5009154;28;20034;-71
2021/07/31 10:58:08;;;;;;;2.72;0.70;;;22.80;55.50;;;;;;5009077;28;20036;-71
2021/07/31 11:00:45;;;;;;;3.30;0.70;;;22.60;55.50;;;;;;5023718;28;20058;-71
2021/07/31 11:03:23;;;;;;;1.95;0.90;;;22.50;55.80;;;;;;5008973;28;20032;-71
2021/07/31 11:05:49;;;;;;;4.90;0.57;;;22.50;56.20;;;;;;5009231;28;20037;-71
2021/07/31 11:08:17;;;;;;;4.35;0.75;;;22.60;56.20;;;;;;5007378;28;20041;-71
2021/07/31 11:10:47;;;;;;;1.73;0.95;;;22.70;55.90;;;;;;5009595;28;20960;-71
2021/07/31 11:13:33;;;;;;;4.30;0.45;;;22.70;55.30;;;;;;5010240;28;20071;-71
2021/07/31 11:16:02;;;;;;;1.88;0.68;;;22.80;55.40;;;;;;5008801;28;20043;-71
2021/07/31 11:18:37;;;;;;;2.08;0.85;;;22.80;55.60;;;;;;5008694;28;20065;-71
2021/07/31 11:21:26;;;;;;;3.63;0.60;;;22.90;55.70;;;;;;5010928;28;20069;-71
2021/07/31 11:24:02;;;;;;;7.03;0.65;;;23.10;54.90;;;;;;5009402;28;20507;-71
2021/07/31 11:26:45;;;;;;;2.15;0.73;;;23.00;55.00;;;;;;5008588;28;20515;-71
2021/07/31 11:29:24;;;;;;;1.00;0.50;;;23.00;55.40;;;;;;5008217;28;20471;-70
2021/07/31 11:32:02;;;;;;;1.95;0.60;;;23.00;55.10;;;;;;5009139;28;20472;-71
2021/07/31 11:34:35;;;;;;;5.35;0.60;;;23.00;54.80;;;;;;5007972;28;20416;-72
2021/07/31 11:37:02;;;;;;;2.20;0.50;;;22.90;55.10;;;;;;5007294;28;20048;-71
2021/07/31 11:39:27;;;;;;;3.53;0.70;;;22.90;54.80;;;;;;5006740;28;20026;-71
2021/07/31 11:41:57;;;;;;;3.30;0.40;;;23.00;55.00;;;;;;5009192;28;20041;-71
2021/07/31 11:44:28;;;;;;;1.40;0.50;;;23.10;55.00;;;;;;5006734;28;20022;-72
2021/07/31 11:46:54;;;;;;;1.42;0.50;;;23.20;54.70;;;;;;5007507;28;20481;-71
2021/07/31 11:49:25;;;;;;;2.80;0.70;;;23.30;54.90;;;;;;5000726;28;20416;-70
2021/07/31 11:51:52;;;;;;;4.20;0.88;;;23.30;54.70;;;;;;5003367;28;20018;-70
2021/07/31 11:54:19;;;;;;;3.58;0.50;;;23.30;54.50;;;;;;5007262;28;20473;-70
2021/07/31 11:56:46;;;;;;;6.60;0.88;;;23.30;53.90;;;;;;5007409;28;20033;-70
2021/07/31 11:59:12;;;;;;;0.85;0.65;;;23.30;54.40;;;;;;5009843;28;20033;-70
2021/07/31 12:01:45;;;;;;;2.65;0.75;;;23.30;54.30;;;;;;5008152;28;20038;-70
2021/07/31 12:04:11;;;;;;;1.30;0.40;;;23.30;54.40;;;;;;5008485;28;20029;-70
2021/07/31 12:06:42;;;;;;;1.17;0.30;;;23.40;54.30;;;;;;5011206;28;20037;-70
2021/07/31 12:09:29;;;;;;;2.15;0.60;;;23.40;53.70;;;;;;5010945;28;20034;-70
2021/07/31 12:11:57;;;;;;;4.15;0.40;;;23.40;53.70;;;;;;5010496;28;20080;-70
2021/07/31 12:14:31;;;;;;;2.55;0.60;;;23.40;53.30;;;;;;5011544;28;20037;-70
2021/07/31 12:17:17;;;;;;;3.70;0.40;;;23.40;53.70;;;;;;5013159;28;20022;-70
2021/07/31 12:20:04;;;;;;;2.83;0.43;;;23.30;53.50;;;;;;5012272;28;20125;-70
2021/07/31 12:22:34;;;;;;;1.25;0.55;;;23.30;53.70;;;;;;5012119;28;20460;-70
2021/07/31 12:25:24;;;;;;;3.60;0.40;;;23.30;54.00;;;;;;5027141;28;20044;-70
2021/07/31 12:28:09;;;;;;;1.80;0.43;;;23.20;54.20;;;;;;5010692;28;20026;-68
2021/07/31 12:30:34;;;;;;;5.50;0.80;;;23.20;54.40;;;;;;5012195;28;20576;-69
2021/07/31 12:33:01;;;;;;;3.65;0.50;;;23.20;54.20;;;;;;5019818;28;20116;-68
2021/07/31 12:35:45;;;;;;;4.10;0.40;;;23.20;54.40;;;;;;5012309;28;20481;-68
2021/07/31 12:38:16;;;;;;;2.15;0.35;;;23.30;54.10;;;;;;5008777;28;20026;-68
2021/07/31 12:40:42;;;;;;;2.25;0.60;;;23.40;53.50;;;;;;5012064;28;20021;-68
2021/07/31 12:43:10;;;;;;;0.98;0.40;;;23.40;53.60;;;;;;5019230;28;20121;-68
2021/07/31 12:45:36;;;;;;;1.67;0.73;;;23.40;53.80;;;;;;5012238;28;20032;-68
2021/07/31 12:48:01;;;;;;;7.38;0.47;;;23.50;53.80;;;;;;5011151;28;20030;-68